Little Genesee, New York
Current Conditions -  °F | °C
As of 7:56 PM on Monday 24 Nov 2014 (Local Time) from KELZ Reporting Station
Clear Clear  
Wind Chill: 53°   Ceiling: Unl
Heat Index: 53°   Visibility: 10mi
Dew Point: 40°   Wind: 20mph
Humidity: 61%   Direction: 240°WSW
Pressure: 29.59"   Gusts: 28mph
Location:  42.03°N, 78.21°W
Report Text: KELZ 250056Z AUTO 24017G24KT 10SM CLR 12/04 A2959 RMK AO2 PK WND 24026/0024 SLP018 T01170044
Loading
Personal Weather Stations






























Interactive Weather Map New forecast layout! Learn more

10-Day Weather Forecast

Advertisements
Track Severe Weather on mobile